Time;durP1;ratioP1;P1;durP2;ratioP2;P2;SDS_P1;SDS_P2;PMS_P1;PMS_P2;Temp;Humidity;BMP_temperature;BMP_pressure;BME280_temperature;BME280_humidity;BME280_pressure;Samples;Min_cycle;Max_cycle;Signal;HPM_P1;HPM_P2
2022/04/17 00:00:38;;;;;;;5.15;1.50;;;19.50;59.70;;;;;;6301275;22;20074;-67
2022/04/17 00:03:06;;;;;;;4.18;2.22;;;19.50;59.60;;;;;;6302362;22;20030;-68
2022/04/17 00:05:34;;;;;;;6.55;1.90;;;19.50;59.60;;;;;;6301529;22;20002;-67
2022/04/17 00:08:00;;;;;;;3.70;1.50;;;19.50;59.60;;;;;;6302161;22;20000;-68
2022/04/17 00:10:27;;;;;;;4.25;1.92;;;19.50;59.70;;;;;;6302790;22;20026;-68
2022/04/17 00:12:53;;;;;;;6.78;1.85;;;19.50;59.70;;;;;;6301331;22;20028;-68
2022/04/17 00:15:20;;;;;;;4.68;1.30;;;19.50;59.70;;;;;;6302099;22;20015;-68
2022/04/17 00:17:46;;;;;;;9.20;1.65;;;19.40;59.80;;;;;;6301076;22;19996;-68
2022/04/17 00:20:17;;;;;;;6.28;2.60;;;19.40;59.70;;;;;;6302530;22;19999;-68
2022/04/17 00:22:44;;;;;;;8.85;1.70;;;19.40;59.70;;;;;;6301778;22;19992;-68
2022/04/17 00:25:12;;;;;;;4.03;1.40;;;19.40;60.00;;;;;;6303576;22;20007;-68
2022/04/17 00:27:41;;;;;;;5.57;1.48;;;19.40;60.00;;;;;;6303978;22;20000;-67
2022/04/17 00:30:09;;;;;;;6.10;1.60;;;19.40;60.00;;;;;;6303296;22;20011;-67
2022/04/17 00:32:36;;;;;;;9.20;2.28;;;19.40;60.00;;;;;;6304490;22;20000;-67
2022/04/17 00:35:07;;;;;;;7.60;3.28;;;19.40;60.10;;;;;;6302483;22;20011;-68
2022/04/17 00:37:35;;;;;;;5.38;1.27;;;19.30;60.00;;;;;;6304099;22;20015;-68
2022/04/17 00:40:01;;;;;;;7.47;1.80;;;19.30;60.00;;;;;;6303020;22;20003;-68
2022/04/17 00:42:28;;;;;;;11.50;1.90;;;19.30;60.00;;;;;;6303867;22;20018;-68
2022/04/17 00:44:54;;;;;;;4.82;1.30;;;19.30;60.20;;;;;;6304089;22;19999;-68
2022/04/17 00:47:21;;;;;;;5.93;1.52;;;19.30;60.20;;;;;;6302508;22;20476;-68
2022/04/17 00:49:47;;;;;;;6.90;1.70;;;19.30;60.20;;;;;;6276327;22;20027;-68
2022/04/17 00:52:15;;;;;;;7.03;1.40;;;19.30;60.30;;;;;;6302359;22;20010;-68
2022/04/17 00:54:46;;;;;;;5.00;2.17;;;19.30;60.30;;;;;;6303884;22;20003;-68
2022/04/17 00:57:17;;;;;;;5.45;1.98;;;19.30;60.30;;;;;;6302480;22;19999;-68
2022/04/17 00:59:46;;;;;;;8.85;1.83;;;19.30;60.20;;;;;;6303634;22;20101;-68
2022/04/17 01:02:17;;;;;;;10.70;1.95;;;19.20;60.20;;;;;;6303587;22;20003;-67
2022/04/17 01:04:44;;;;;;;9.88;1.75;;;19.20;60.40;;;;;;6302672;22;20009;-67
2022/04/17 01:07:11;;;;;;;7.65;2.33;;;19.20;60.50;;;;;;6304009;22;20454;-67
2022/04/17 01:09:38;;;;;;;7.00;1.90;;;19.20;60.50;;;;;;6302547;22;20010;-68
2022/04/17 01:12:10;;;;;;;6.13;1.40;;;19.20;60.60;;;;;;6303601;22;20010;-67
2022/04/17 01:14:41;;;;;;;8.68;2.05;;;19.20;60.80;;;;;;6302407;22;20003;-67
2022/04/17 01:17:09;;;;;;;5.18;1.92;;;19.20;60.60;;;;;;6303222;22;20415;-67
2022/04/17 01:19:37;;;;;;;5.45;1.55;;;19.20;60.50;;;;;;6303293;22;20003;-68
2022/04/17 01:22:09;;;;;;;6.25;1.80;;;19.10;60.50;;;;;;6302461;22;20527;-67
2022/04/17 01:27:21;;;;;;;4.05;1.40;;;19.10;60.60;;;;;;6302477;22;20073;-68
2022/04/17 01:29:50;;;;;;;11.07;3.13;;;19.10;60.70;;;;;;6303026;22;20013;-68
2022/04/17 01:32:17;;;;;;;14.10;1.70;;;19.10;60.70;;;;;;6303179;22;20573;-68
2022/04/17 01:34:44;;;;;;;8.77;2.15;;;19.10;60.70;;;;;;6302377;22;20090;-67
2022/04/17 01:37:10;;;;;;;8.38;1.35;;;19.00;60.70;;;;;;6303458;22;20330;-68
2022/04/17 01:39:37;;;;;;;5.15;1.77;;;19.10;60.90;;;;;;6302202;22;20000;-68
2022/04/17 01:42:04;;;;;;;5.32;1.58;;;19.00;60.90;;;;;;6303578;22;20073;-68
2022/04/17 01:44:31;;;;;;;11.88;1.85;;;19.10;61.00;;;;;;6302208;22;20006;-68
2022/04/17 01:46:58;;;;;;;9.80;1.88;;;19.00;60.90;;;;;;6303350;22;20015;-67
2022/04/17 01:49:25;;;;;;;11.00;2.58;;;19.00;60.90;;;;;;6302437;22;20010;-68
2022/04/17 01:51:52;;;;;;;6.03;2.55;;;19.00;60.90;;;;;;6302979;22;20033;-68
2022/04/17 01:54:20;;;;;;;5.57;1.83;;;19.00;60.80;;;;;;6303519;22;20019;-68
2022/04/17 01:56:49;;;;;;;5.55;1.65;;;19.00;60.90;;;;;;6301719;22;19999;-68
2022/04/17 01:59:20;;;;;;;4.43;2.15;;;19.00;60.80;;;;;;6302933;22;20007;-67
2022/04/17 02:01:48;;;;;;;6.13;1.95;;;19.00;60.80;;;;;;6301895;22;20105;-68
2022/04/17 02:04:14;;;;;;;7.63;2.40;;;19.00;61.00;;;;;;6303298;22;20003;-68
2022/04/17 02:06:42;;;;;;;3.35;2.05;;;19.00;60.90;;;;;;6302287;22;19999;-67
2022/04/17 02:09:11;;;;;;;11.95;2.63;;;18.90;61.00;;;;;;6302709;22;20030;-67
2022/04/17 02:11:38;;;;;;;6.57;2.13;;;19.00;61.50;;;;;;6303236;22;20104;-68
2022/04/17 02:14:06;;;;;;;15.75;2.00;;;18.90;61.90;;;;;;6301718;22;20011;-68
2022/04/17 02:16:33;;;;;;;11.55;2.17;;;18.90;62.20;;;;;;6302998;22;20066;-68
2022/04/17 02:19:00;;;;;;;8.23;2.17;;;18.90;62.70;;;;;;6301844;22;20016;-68
2022/04/17 02:21:28;;;;;;;15.38;2.47;;;18.90;62.90;;;;;;6303494;22;20436;-67
2022/04/17 02:23:56;;;;;;;6.18;1.60;;;18.90;62.10;;;;;;6302032;22;20082;-67
2022/04/17 02:26:22;;;;;;;7.03;1.50;;;18.90;61.30;;;;;;6302647;22;20007;-67
2022/04/17 02:28:49;;;;;;;10.60;2.40;;;18.90;60.90;;;;;;6302920;22;20014;-67
2022/04/17 02:31:17;;;;;;;6.95;1.55;;;18.90;60.90;;;;;;6301621;22;20070;-67
2022/04/17 02:33:43;;;;;;;5.18;1.60;;;18.90;60.80;;;;;;6302761;22;20019;-67
2022/04/17 02:36:10;;;;;;;12.40;1.77;;;18.90;60.90;;;;;;6301713;22;20023;-67
2022/04/17 02:38:36;;;;;;;4.63;1.67;;;18.90;60.90;;;;;;6303193;22;20052;-67
2022/04/17 02:41:03;;;;;;;6.22;2.15;;;18.90;60.90;;;;;;6301340;22;20030;-67
2022/04/17 02:43:29;;;;;;;4.05;1.70;;;18.80;60.80;;;;;;6302479;22;19999;-67
2022/04/17 02:45:56;;;;;;;5.28;1.58;;;18.80;60.80;;;;;;6302048;22;20077;-67
2022/04/17 02:48:23;;;;;;;3.50;1.10;;;18.80;60.90;;;;;;6302023;22;19999;-67
2022/04/17 02:50:50;;;;;;;7.13;1.65;;;18.70;60.90;;;;;;6302603;22;20004;-67
2022/04/17 02:53:17;;;;;;;6.90;1.80;;;18.70;60.90;;;;;;6301206;22;20418;-67
2022/04/17 02:55:44;;;;;;;5.80;1.50;;;18.70;60.90;;;;;;6302873;22;20448;-67
2022/04/17 02:58:11;;;;;;;4.68;1.80;;;18.70;61.00;;;;;;6301546;22;20010;-67
2022/04/17 03:06:10;;;;;;;7.38;2.30;;;18.70;61.20;;;;;;6301876;22;20087;-67
2022/04/17 03:08:41;;;;;;;7.40;1.70;;;18.70;61.30;;;;;;6302484;22;19999;-66
2022/04/17 03:11:08;;;;;;;11.20;3.55;;;18.70;61.30;;;;;;6301266;22;20007;-68
2022/04/17 03:13:35;;;;;;;12.13;6.97;;;18.70;61.30;;;;;;6302541;22;20386;-68
2022/04/17 03:16:02;;;;;;;28.58;13.40;;;18.70;61.70;;;;;;6301780;22;19999;-68
2022/04/17 03:18:29;;;;;;;14.73;7.85;;;18.60;61.90;;;;;;6302134;22;20007;-67
2022/04/17 03:20:55;;;;;;;7.57;3.45;;;18.60;61.90;;;;;;6302823;22;20083;-67
2022/04/17 03:23:21;;;;;;;14.30;3.08;;;18.60;61.70;;;;;;6301289;22;20003;-67
2022/04/17 03:25:48;;;;;;;5.85;2.00;;;18.70;61.70;;;;;;6302635;22;20343;-67
2022/04/17 03:28:15;;;;;;;5.50;1.60;;;18.60;61.50;;;;;;6301696;22;20004;-67
2022/04/17 03:30:41;;;;;;;4.15;1.08;;;18.60;61.30;;;;;;6302140;22;20030;-67
2022/04/17 03:33:08;;;;;;;6.00;2.50;;;18.60;61.30;;;;;;6301484;22;20008;-67
2022/04/17 03:35:34;;;;;;;11.27;1.77;;;18.60;61.20;;;;;;6302007;22;20012;-67
2022/04/17 03:38:01;;;;;;;6.47;1.70;;;18.60;61.20;;;;;;6302534;22;20505;-67
2022/04/17 03:40:28;;;;;;;9.50;1.95;;;18.60;61.10;;;;;;6301338;22;20008;-68
2022/04/17 03:42:56;;;;;;;2.85;1.27;;;18.60;61.10;;;;;;6302299;22;19999;-68
2022/04/17 03:46:02;;;;;;;5.85;1.63;;;18.60;61.10;;;;;;6300922;22;20354;-67
2022/04/17 03:49:08;;;;;;;7.82;3.08;;;18.50;61.10;;;;;;6301944;22;20000;-67
2022/04/17 03:52:14;;;;;;;5.80;2.22;;;18.50;61.00;;;;;;6302409;22;20006;-68
2022/04/17 03:54:40;;;;;;;8.60;2.00;;;18.50;61.00;;;;;;6301277;22;20019;-67
2022/04/17 03:57:07;;;;;;;8.32;2.03;;;18.50;61.00;;;;;;6302410;22;20346;-67
2022/04/17 03:59:34;;;;;;;4.80;2.63;;;18.50;61.00;;;;;;6304158;22;19999;-68
2022/04/17 04:02:01;;;;;;;7.28;2.38;;;18.50;61.00;;;;;;6303072;22;20019;-67
2022/04/17 04:04:30;;;;;;;6.63;1.95;;;18.50;61.00;;;;;;6304109;22;20407;-67
2022/04/17 04:06:57;;;;;;;6.30;1.77;;;18.40;60.90;;;;;;6303241;22;20395;-67
2022/04/17 04:09:23;;;;;;;10.98;2.33;;;18.40;61.00;;;;;;6302417;22;20038;-67
2022/04/17 04:11:50;;;;;;;6.13;2.08;;;18.40;61.10;;;;;;6301880;22;20052;-69
2022/04/17 04:14:16;;;;;;;7.07;3.50;;;18.40;61.20;;;;;;6303703;22;20326;-67
2022/04/17 04:16:43;;;;;;;9.88;2.00;;;18.40;61.40;;;;;;6303236;22;20478;-66
2022/04/17 04:19:10;;;;;;;11.38;2.75;;;18.40;61.40;;;;;;6303842;22;20031;-68
2022/04/17 04:21:47;;;;;;;5.65;2.25;;;18.30;62.00;;;;;;6304257;22;20469;-67
2022/04/17 04:24:19;;;;;;;3.88;1.90;;;18.30;62.60;;;;;;6302582;22;20057;-66
2022/04/17 04:28:33;;;;;;;10.93;3.88;;;18.20;62.20;;;;;;6303890;22;20006;-68
2022/04/17 04:29:36;;;;;;;20.25;11.32;;;18.20;61.70;;;;;;6302354;22;20022;-68
2022/04/17 04:32:03;;;;;;;16.70;10.30;;;18.20;61.70;;;;;;6303825;22;20373;-69
2022/04/17 04:34:30;;;;;;;11.95;5.68;;;18.20;61.70;;;;;;6304010;22;20326;-68
2022/04/17 04:36:56;;;;;;;10.88;4.07;;;18.20;61.70;;;;;;6302179;22;20369;-67
2022/04/17 04:39:23;;;;;;;8.35;3.22;;;18.20;61.60;;;;;;6303945;22;20422;-68
2022/04/17 04:41:49;;;;;;;15.60;3.15;;;18.20;61.60;;;;;;6302613;22;20003;-68
2022/04/17 04:44:16;;;;;;;25.52;3.00;;;18.20;61.80;;;;;;6303826;22;20010;-68
2022/04/17 04:46:42;;;;;;;14.85;3.92;;;18.20;62.10;;;;;;6301187;22;20071;-67
2022/04/17 04:51:54;;;;;;;6.87;3.20;;;18.20;62.00;;;;;;6303330;22;20006;-68
2022/04/17 04:54:20;;;;;;;7.72;2.15;;;18.10;61.80;;;;;;6301760;22;20595;-67
2022/04/17 04:56:47;;;;;;;11.48;2.30;;;18.10;62.00;;;;;;6303647;22;20030;-67
2022/04/17 04:59:13;;;;;;;13.73;2.20;;;18.10;61.80;;;;;;6302919;22;20369;-67
2022/04/17 05:01:40;;;;;;;9.32;2.00;;;18.10;61.80;;;;;;6303850;22;20039;-66
2022/04/17 05:04:06;;;;;;;11.45;2.22;;;18.10;62.00;;;;;;6302767;22;20012;-66
2022/04/17 05:06:33;;;;;;;8.63;1.77;;;18.10;61.90;;;;;;6303259;22;20007;-66
2022/04/17 05:09:00;;;;;;;5.53;2.10;;;18.10;62.00;;;;;;6303339;22;20573;-67
2022/04/17 05:11:26;;;;;;;11.43;2.22;;;18.10;62.10;;;;;;6302791;22;20403;-67
2022/04/17 05:13:53;;;;;;;4.53;1.60;;;18.20;62.90;;;;;;6303716;22;20003;-67
2022/04/17 05:16:19;;;;;;;5.25;2.13;;;18.20;63.30;;;;;;6302370;22;20069;-67
2022/04/17 05:18:48;;;;;;;17.13;2.70;;;18.10;63.30;;;;;;6303838;22;20007;-67
2022/04/17 05:21:15;;;;;;;11.85;2.40;;;18.20;63.90;;;;;;6302595;22;20026;-67
2022/04/17 05:23:41;;;;;;;10.65;1.70;;;18.20;64.20;;;;;;6303718;22;20010;-67
2022/04/17 05:26:08;;;;;;;7.22;2.30;;;18.20;64.20;;;;;;6303001;22;20007;-67
2022/04/17 05:28:34;;;;;;;5.65;1.55;;;18.20;64.10;;;;;;6302705;22;20081;-67
2022/04/17 05:31:01;;;;;;;11.07;1.80;;;18.20;64.10;;;;;;6304327;22;20006;-67
2022/04/17 05:33:27;;;;;;;6.20;1.60;;;18.20;64.20;;;;;;6302040;22;20334;-67
2022/04/17 05:35:55;;;;;;;4.63;1.27;;;18.20;64.20;;;;;;6303477;22;20038;-67
2022/04/17 05:38:22;;;;;;;3.45;1.55;;;18.30;64.20;;;;;;6302300;22;20003;-66
2022/04/17 05:40:52;;;;;;;3.97;1.60;;;18.30;64.00;;;;;;6303282;22;20374;-67
2022/04/17 05:43:21;;;;;;;4.35;1.30;;;18.20;63.80;;;;;;6302695;22;19999;-67
2022/04/17 05:45:50;;;;;;;5.25;1.83;;;18.30;63.80;;;;;;6302575;22;20116;-67
2022/04/17 05:48:17;;;;;;;6.22;1.42;;;18.30;63.80;;;;;;6303576;22;20007;-67
2022/04/17 05:50:44;;;;;;;6.55;1.73;;;18.30;63.80;;;;;;6301848;22;20011;-67
2022/04/17 05:53:12;;;;;;;7.75;1.80;;;18.30;63.60;;;;;;6303257;22;19999;-67
2022/04/17 05:55:40;;;;;;;4.10;1.67;;;18.30;63.50;;;;;;6302096;22;20133;-67
2022/04/17 05:58:06;;;;;;;10.27;2.50;;;18.30;63.50;;;;;;6303272;22;20026;-67
2022/04/17 06:00:33;;;;;;;7.28;2.13;;;18.30;63.50;;;;;;6302098;22;20351;-67
2022/04/17 06:02:59;;;;;;;5.05;1.83;;;18.30;64.20;;;;;;6302655;22;20048;-66
2022/04/17 06:05:26;;;;;;;9.98;2.75;;;18.30;63.50;;;;;;6303067;22;20000;-67
2022/04/17 06:07:52;;;;;;;6.45;2.00;;;18.30;63.40;;;;;;6301492;22;20482;-67
2022/04/17 06:10:19;;;;;;;10.23;2.20;;;18.30;63.60;;;;;;6303074;22;20010;-66
2022/04/17 06:12:45;;;;;;;7.90;1.75;;;18.30;63.60;;;;;;6301477;22;20391;-67
2022/04/17 06:15:12;;;;;;;8.93;1.85;;;18.40;63.40;;;;;;6303550;22;20419;-67
2022/04/17 06:17:43;;;;;;;6.40;2.03;;;18.40;63.20;;;;;;6301711;22;20454;-67
2022/04/17 06:20:14;;;;;;;5.65;1.80;;;18.30;63.10;;;;;;6302849;22;20003;-67
2022/04/17 06:22:41;;;;;;;4.35;1.98;;;18.30;63.10;;;;;;6302839;22;20349;-67
2022/04/17 06:25:10;;;;;;;10.20;2.63;;;18.30;62.90;;;;;;6301744;22;20395;-67
2022/04/17 06:27:44;;;;;;;5.95;2.10;;;18.30;62.90;;;;;;6302867;22;20426;-67
2022/04/17 06:30:13;;;;;;;5.32;1.65;;;18.40;62.90;;;;;;6301648;22;20450;-67
2022/04/17 06:32:41;;;;;;;3.35;1.35;;;18.40;62.90;;;;;;6302943;22;20092;-67
2022/04/17 06:35:09;;;;;;;6.68;1.67;;;18.30;62.90;;;;;;6302060;22;20076;-66
2022/04/17 06:37:59;;;;;;;8.55;2.10;;;18.40;62.90;;;;;;6302138;22;20036;-67
2022/04/17 06:40:28;;;;;;;8.60;2.22;;;18.40;62.90;;;;;;6302809;22;20007;-67
2022/04/17 06:42:58;;;;;;;9.57;2.20;;;18.40;62.90;;;;;;6301326;22;20006;-67
2022/04/17 06:45:25;;;;;;;13.80;1.88;;;18.40;62.80;;;;;;6302986;22;20003;-67
2022/04/17 06:47:52;;;;;;;17.10;3.22;;;18.40;63.00;;;;;;6301870;22;19995;-67
2022/04/17 06:50:19;;;;;;;8.77;2.05;;;18.40;63.00;;;;;;6302851;22;20027;-67
2022/04/17 06:52:45;;;;;;;6.47;1.85;;;18.50;63.10;;;;;;6302219;22;20003;-67
2022/04/17 06:55:12;;;;;;;7.07;2.72;;;18.50;62.90;;;;;;6301497;22;20015;-67
2022/04/17 06:57:46;;;;;;;5.40;1.52;;;18.50;62.80;;;;;;6302492;22;20050;-67
2022/04/17 07:00:13;;;;;;;5.57;2.45;;;18.60;62.80;;;;;;6301128;22;20022;-66
2022/04/17 07:02:41;;;;;;;6.95;3.10;;;18.60;62.60;;;;;;6302843;22;20002;-67
2022/04/17 07:05:09;;;;;;;6.50;3.45;;;18.60;62.60;;;;;;6301520;22;20318;-67
2022/04/17 07:07:35;;;;;;;7.22;2.97;;;18.60;62.40;;;;;;6303042;22;20411;-67
2022/04/17 07:10:02;;;;;;;7.25;2.78;;;18.70;62.50;;;;;;6302064;22;19999;-67
2022/04/17 07:12:29;;;;;;;8.48;2.65;;;18.70;62.40;;;;;;6301619;22;20002;-67
2022/04/17 07:14:59;;;;;;;7.55;2.63;;;18.70;62.30;;;;;;6302808;22;20065;-67
2022/04/17 07:17:39;;;;;;;6.45;2.42;;;18.80;62.40;;;;;;6301612;22;20003;-67
2022/04/17 07:20:07;;;;;;;7.18;2.72;;;18.80;62.30;;;;;;6302775;22;20030;-67
2022/04/17 07:22:37;;;;;;;7.70;2.75;;;18.90;62.20;;;;;;6301287;22;19999;-67
2022/04/17 07:25:06;;;;;;;12.52;3.50;;;18.90;62.00;;;;;;6302343;22;20000;-67
2022/04/17 07:27:39;;;;;;;8.88;2.72;;;18.90;61.70;;;;;;6302277;22;20357;-67
2022/04/17 07:30:11;;;;;;;18.20;4.97;;;19.00;61.40;;;;;;6301381;22;20006;-67
2022/04/17 07:32:42;;;;;;;14.55;4.53;;;19.00;61.80;;;;;;6304086;22;20390;-67
2022/04/17 07:35:10;;;;;;;11.95;3.10;;;19.00;61.40;;;;;;6303237;22;20018;-67
2022/04/17 07:37:38;;;;;;;8.18;3.17;;;19.10;61.10;;;;;;6304446;22;20003;-67
2022/04/17 07:40:17;;;;;;;9.07;3.58;;;19.10;60.70;;;;;;6303767;22;20010;-67
2022/04/17 07:42:44;;;;;;;9.45;3.38;;;19.10;60.40;;;;;;6303551;22;20003;-68
2022/04/17 07:45:12;;;;;;;6.80;2.83;;;19.10;60.10;;;;;;6304726;22;20003;-67
2022/04/17 07:47:39;;;;;;;10.18;3.45;;;19.20;59.90;;;;;;6302820;22;20513;-67
2022/04/17 07:50:07;;;;;;;7.03;3.60;;;19.20;59.70;;;;;;6304536;22;20012;-67
2022/04/17 07:52:37;;;;;;;5.15;3.35;;;19.20;59.70;;;;;;6303079;22;20015;-67
2022/04/17 07:55:04;;;;;;;13.35;3.63;;;19.20;59.60;;;;;;6304151;22;20011;-67
2022/04/17 07:57:53;;;;;;;9.70;4.00;;;19.20;59.50;;;;;;6304234;22;20006;-67
2022/04/17 08:00:22;;;;;;;21.73;3.95;;;19.30;59.40;;;;;;6302788;22;20351;-68
2022/04/17 08:02:52;;;;;;;7.97;3.15;;;19.30;59.30;;;;;;6304717;22;20007;-67
2022/04/17 08:05:21;;;;;;;9.82;4.15;;;19.30;59.30;;;;;;6303436;22;20109;-67
2022/04/17 08:07:48;;;;;;;8.02;3.22;;;19.40;59.30;;;;;;6304003;22;20007;-67
2022/04/17 08:10:14;;;;;;;8.25;3.55;;;19.40;59.20;;;;;;6303399;22;20006;-67
2022/04/17 08:12:41;;;;;;;8.88;3.35;;;19.40;59.10;;;;;;6304315;22;20046;-67
2022/04/17 08:15:08;;;;;;;8.10;3.53;;;19.50;59.10;;;;;;6303804;22;20011;-67
2022/04/17 08:17:35;;;;;;;9.55;3.65;;;19.50;59.10;;;;;;6302953;22;20035;-67
2022/04/17 08:20:02;;;;;;;7.00;2.47;;;19.60;59.00;;;;;;6304550;22;20025;-67
2022/04/17 08:22:28;;;;;;;7.28;2.50;;;19.60;58.70;;;;;;6303387;22;20029;-67
2022/04/17 08:24:54;;;;;;;6.18;1.90;;;19.60;58.50;;;;;;6304194;22;20492;-67
2022/04/17 08:27:21;;;;;;;2.78;1.75;;;19.70;58.00;;;;;;6275182;22;20026;-67
2022/04/17 08:29:47;;;;;;;8.13;2.38;;;19.70;57.80;;;;;;6304327;22;20030;-67
2022/04/17 08:32:14;;;;;;;5.07;1.52;;;19.80;57.70;;;;;;6303532;22;20003;-67
2022/04/17 08:34:40;;;;;;;11.48;2.70;;;19.90;57.50;;;;;;6303425;22;20022;-67
2022/04/17 08:37:07;;;;;;;8.35;1.42;;;19.90;58.00;;;;;;6304130;22;20078;-68
2022/04/17 08:39:33;;;;;;;6.50;2.03;;;20.00;57.40;;;;;;6302603;22;20374;-67
2022/04/17 08:42:01;;;;;;;9.32;2.03;;;20.00;57.20;;;;;;6303932;22;20042;-67
2022/04/17 08:44:27;;;;;;;7.93;1.92;;;20.10;57.10;;;;;;6302224;22;20026;-67
2022/04/17 08:46:54;;;;;;;5.63;1.85;;;20.10;57.00;;;;;;6304108;22;19999;-67
2022/04/17 08:49:23;;;;;;;9.00;2.35;;;20.10;57.00;;;;;;6303227;22;20003;-67
2022/04/17 08:51:52;;;;;;;2.95;1.42;;;20.20;57.00;;;;;;6303609;22;20003;-67
2022/04/17 08:54:20;;;;;;;6.18;1.98;;;20.20;56.80;;;;;;6303635;22;20003;-67
2022/04/17 08:56:47;;;;;;;4.60;2.90;;;20.30;56.80;;;;;;6302365;22;20010;-67
2022/04/17 08:59:15;;;;;;;4.97;2.53;;;20.30;56.70;;;;;;6303773;22;20087;-67
2022/04/17 09:01:41;;;;;;;9.00;2.83;;;20.40;56.70;;;;;;6302146;22;20493;-68
2022/04/17 09:04:08;;;;;;;6.97;2.10;;;20.40;56.60;;;;;;6303722;22;20320;-67
2022/04/17 09:06:35;;;;;;;10.02;2.17;;;20.50;56.60;;;;;;6303024;22;20438;-68
2022/04/17 09:09:06;;;;;;;10.02;1.90;;;20.50;56.60;;;;;;6303305;22;20007;-67
2022/04/17 09:11:34;;;;;;;15.00;2.33;;;20.60;56.40;;;;;;6303621;22;20482;-68
2022/04/17 09:14:02;;;;;;;9.25;2.08;;;20.70;56.00;;;;;;6302792;22;20092;-67
2022/04/17 09:16:30;;;;;;;6.63;1.92;;;20.70;55.40;;;;;;6303778;22;20003;-67
2022/04/17 09:19:37;;;;;;;16.73;2.80;;;20.80;54.80;;;;;;6301889;22;20000;-68
2022/04/17 09:22:43;;;;;;;12.48;2.45;;;20.80;54.60;;;;;;6303235;22;20007;-69
2022/04/17 09:25:13;;;;;;;19.15;2.03;;;20.90;54.50;;;;;;6303446;22;19999;-68
2022/04/17 09:28:02;;;;;;;13.20;2.72;;;21.00;54.40;;;;;;6301858;22;20485;-69
2022/04/17 09:30:33;;;;;;;7.53;1.55;;;21.10;54.40;;;;;;6302928;22;20492;-69
2022/04/17 09:33:11;;;;;;;10.57;2.38;;;21.10;53.20;;;;;;6302343;22;20552;-69
2022/04/17 09:35:38;;;;;;;8.10;2.28;;;21.20;53.10;;;;;;6300750;22;20015;-68
2022/04/17 09:38:06;;;;;;;10.27;1.92;;;21.30;53.10;;;;;;6302729;22;20003;-68
2022/04/17 09:40:35;;;;;;;5.85;1.70;;;21.30;53.20;;;;;;6299839;22;20011;-68
2022/04/17 09:43:12;;;;;;;6.40;2.25;;;21.40;53.20;;;;;;6302107;22;20003;-68
2022/04/17 09:46:01;;;;;;;7.95;2.08;;;21.50;52.70;;;;;;6301262;22;20094;-69
2022/04/17 09:48:42;;;;;;;36.95;8.73;;;21.50;53.10;;;;;;6301063;22;20006;-68
2022/04/17 09:51:23;;;;;;;30.02;17.33;;;21.60;53.20;;;;;;6302556;22;20010;-67
2022/04/17 09:54:04;;;;;;;25.58;11.10;;;21.70;53.70;;;;;;6300165;22;20126;-68
2022/04/17 09:57:20;;;;;;;18.83;6.32;;;21.70;53.30;;;;;;6299842;22;20085;-69
2022/04/17 10:00:32;;;;;;;14.80;4.05;;;21.80;52.50;;;;;;6300016;22;19999;-69
2022/04/17 10:03:39;;;;;;;68.60;21.15;;;22.00;51.60;;;;;;6300578;22;20026;-70
2022/04/17 10:06:45;;;;;;;17.05;10.45;;;22.10;51.50;;;;;;6301521;22;20442;-68
2022/04/17 10:09:32;;;;;;;21.20;13.07;;;22.20;50.60;;;;;;6302961;22;20082;-69
2022/04/17 10:12:02;;;;;;;59.67;54.35;;;22.20;50.50;;;;;;6302654;22;20011;-68
2022/04/17 10:14:29;;;;;;;26.88;19.35;;;22.30;49.70;;;;;;6301660;22;20027;-67
2022/04/17 10:16:57;;;;;;;24.33;19.90;;;22.40;49.90;;;;;;6303135;22;20044;-69
2022/04/17 10:19:25;;;;;;;39.92;33.80;;;22.40;49.20;;;;;;6301559;22;20031;-69
2022/04/17 10:21:52;;;;;;;121.95;108.50;;;22.50;49.30;;;;;;6302485;22;20014;-69
2022/04/17 10:24:21;;;;;;;480.30;400.45;;;22.50;49.90;;;;;;6301246;22;20007;-69
2022/04/17 10:26:50;;;;;;;178.27;158.98;;;22.50;50.10;;;;;;6302701;22;20003;-68
2022/04/17 10:29:29;;;;;;;106.68;95.35;;;22.60;50.20;;;;;;6302673;22;20007;-69
2022/04/17 10:32:38;;;;;;;65.93;58.88;;;22.60;49.60;;;;;;6301465;22;19995;-69
2022/04/17 10:35:34;;;;;;;57.13;25.95;;;22.70;49.30;;;;;;6302807;22;20090;-69
2022/04/17 10:38:51;;;;;;;21.27;12.93;;;22.70;49.40;;;;;;6302383;22;20000;-72
2022/04/17 10:41:18;;;;;;;9.30;7.63;;;22.80;49.30;;;;;;6217013;22;20010;-70
2022/04/17 10:43:47;;;;;;;18.77;5.15;;;22.80;49.20;;;;;;6302484;22;19995;-69
2022/04/17 10:46:16;;;;;;;8.02;3.00;;;22.90;49.40;;;;;;6302032;22;19999;-68
2022/04/17 10:49:01;;;;;;;6.25;3.10;;;22.90;48.50;;;;;;6302045;22;21068;-68
2022/04/17 10:51:32;;;;;;;6.50;1.63;;;22.90;48.30;;;;;;6302422;22;19999;-68
2022/04/17 10:54:16;;;;;;;11.93;2.30;;;22.90;48.40;;;;;;6300302;22;20011;-69
2022/04/17 10:57:02;;;;;;;18.60;8.13;;;22.90;48.10;;;;;;6301489;22;20008;-70
2022/04/17 10:59:31;;;;;;;8.40;3.63;;;23.00;48.70;;;;;;6301068;22;20003;-69
2022/04/17 11:02:22;;;;;;;7.22;2.63;;;23.10;47.70;;;;;;6298270;22;20383;-68
2022/04/17 11:04:50;;;;;;;9.63;3.03;;;23.10;47.10;;;;;;6300946;22;20015;-69
2022/04/17 11:07:17;;;;;;;7.50;2.30;;;23.20;47.20;;;;;;6299735;22;19999;-69
2022/04/17 11:09:46;;;;;;;8.05;2.53;;;23.30;47.60;;;;;;6302287;22;20003;-69
2022/04/17 11:12:18;;;;;;;6.40;1.80;;;23.30;46.90;;;;;;6300751;22;20006;-68
2022/04/17 11:15:03;;;;;;;12.43;2.45;;;23.40;46.80;;;;;;6300848;22;20019;-69
2022/04/17 11:17:31;;;;;;;6.05;1.70;;;23.50;46.70;;;;;;6302183;22;20033;-67
2022/04/17 11:19:59;;;;;;;6.70;2.15;;;23.50;46.50;;;;;;6300052;22;20078;-68
2022/04/17 11:22:33;;;;;;;8.00;2.42;;;23.60;46.80;;;;;;6301715;22;19999;-67
2022/04/17 11:25:03;;;;;;;3.65;1.70;;;23.70;46.80;;;;;;6299969;22;20036;-68
2022/04/17 11:27:32;;;;;;;17.52;2.60;;;23.70;47.10;;;;;;6300960;22;20007;-68
2022/04/17 11:30:04;;;;;;;10.55;1.90;;;23.80;47.30;;;;;;6301668;22;20342;-69
2022/04/17 11:32:30;;;;;;;7.90;2.38;;;23.80;47.00;;;;;;6273289;22;20326;-69
2022/04/17 11:35:05;;;;;;;7.97;2.47;;;23.90;46.90;;;;;;6301171;22;20007;-69
2022/04/17 11:37:32;;;;;;;6.00;2.05;;;23.90;46.70;;;;;;6299839;22;20010;-69
2022/04/17 11:40:15;;;;;;;5.25;1.75;;;24.00;46.50;;;;;;6301648;22;19991;-69
2022/04/17 11:42:56;;;;;;;5.50;1.73;;;24.10;46.70;;;;;;6300707;22;20003;-68
2022/04/17 11:45:25;;;;;;;34.90;15.43;;;24.10;46.10;;;;;;6300596;22;20023;-68
2022/04/17 11:47:53;;;;;;;15.30;8.45;;;24.10;46.00;;;;;;6301118;22;20135;-69
2022/04/17 11:50:29;;;;;;;19.17;7.20;;;24.20;46.00;;;;;;6300274;22;20045;-69
2022/04/17 11:53:01;;;;;;;4.97;3.50;;;24.20;46.50;;;;;;6299491;22;20612;-67
2022/04/17 11:55:30;;;;;;;9.60;3.35;;;24.30;46.10;;;;;;6299690;22;20054;-69
2022/04/17 11:57:57;;;;;;;6.53;2.33;;;24.30;46.20;;;;;;6300679;22;20082;-68
2022/04/17 12:00:25;;;;;;;8.43;2.45;;;24.30;46.60;;;;;;6301512;22;20007;-67
2022/04/17 12:02:59;;;;;;;8.70;2.00;;;24.40;47.10;;;;;;6300281;22;20011;-69
2022/04/17 12:05:27;;;;;;;11.45;2.80;;;24.40;46.90;;;;;;6301329;22;20078;-67
2022/04/17 12:07:58;;;;;;;5.35;1.90;;;24.40;46.90;;;;;;6300546;22;20104;-67
2022/04/17 12:10:25;;;;;;;5.93;2.28;;;24.50;47.10;;;;;;6300981;22;20014;-68
2022/04/17 12:12:52;;;;;;;5.55;2.30;;;24.50;47.00;;;;;;6300049;22;20007;-70
2022/04/17 12:15:18;;;;;;;3.95;1.88;;;24.60;47.10;;;;;;6300706;22;20012;-70
2022/04/17 12:17:45;;;;;;;7.20;2.20;;;24.60;47.40;;;;;;6302389;22;19995;-71
2022/04/17 12:20:15;;;;;;;7.18;2.08;;;24.60;47.30;;;;;;6302644;22;20311;-69
2022/04/17 12:22:42;;;;;;;6.28;2.33;;;24.60;46.90;;;;;;6303531;22;19999;-70
2022/04/17 12:25:21;;;;;;;7.18;2.35;;;24.70;46.40;;;;;;6302193;22;20070;-70
2022/04/17 12:27:48;;;;;;;5.40;2.28;;;24.70;46.10;;;;;;6303319;22;20082;-68
2022/04/17 12:30:23;;;;;;;6.65;2.70;;;24.70;46.00;;;;;;6275274;22;20007;-68
2022/04/17 12:32:50;;;;;;;7.70;2.10;;;24.70;46.00;;;;;;6302800;22;20011;-69
2022/04/17 12:35:25;;;;;;;10.20;2.03;;;24.70;45.60;;;;;;6303381;22;20026;-69
2022/04/17 12:38:03;;;;;;;6.18;1.80;;;24.70;45.50;;;;;;6302462;22;20080;-69
2022/04/17 12:40:31;;;;;;;11.98;1.88;;;24.70;45.00;;;;;;6303530;22;20002;-69
2022/04/17 12:43:21;;;;;;;12.40;4.20;;;24.70;44.40;;;;;;6302057;22;20109;-69
2022/04/17 12:46:17;;;;;;;12.55;3.97;;;24.70;44.70;;;;;;6302824;22;20072;-68
2022/04/17 12:48:44;;;;;;;6.80;2.88;;;24.70;44.50;;;;;;6301854;22;20431;-69
2022/04/17 12:51:11;;;;;;;16.77;3.05;;;24.70;44.60;;;;;;6301724;22;20397;-69
2022/04/17 12:53:42;;;;;;;7.40;2.00;;;24.70;44.80;;;;;;6303102;22;20470;-69
2022/04/17 12:56:11;;;;;;;4.32;2.38;;;24.70;44.60;;;;;;6302700;22;20030;-68
2022/04/17 12:58:52;;;;;;;5.72;1.90;;;24.70;44.90;;;;;;6302791;22;20007;-68
2022/04/17 13:01:30;;;;;;;8.32;2.15;;;24.80;45.90;;;;;;6302482;22;20027;-68
2022/04/17 13:04:21;;;;;;;5.70;2.25;;;24.80;45.50;;;;;;6301318;22;20004;-68
2022/04/17 13:06:50;;;;;;;5.72;1.98;;;24.80;45.50;;;;;;6302701;22;20460;-67
2022/04/17 13:09:18;;;;;;;7.72;2.50;;;24.90;45.80;;;;;;6301684;22;20049;-68
2022/04/17 13:11:55;;;;;;;4.70;1.92;;;24.90;46.50;;;;;;6302587;22;20002;-68